createdAt,value
2022-12-27T00:01:52.690Z,101113.78
2022-12-27T00:04:20.883Z,101110.59
2022-12-27T00:06:50.396Z,101110.84
2022-12-27T00:09:18.497Z,101103.13
2022-12-27T00:11:47.113Z,101106.84
2022-12-27T00:14:15.381Z,101104.72
2022-12-27T00:16:43.532Z,101098.06
2022-12-27T00:19:11.784Z,101092.69
2022-12-27T00:21:39.979Z,101088.16
2022-12-27T00:24:09.871Z,101095.88
2022-12-27T00:26:39.501Z,101091.38
2022-12-27T00:29:07.889Z,101085.75
2022-12-27T00:31:36.033Z,101093.22
2022-12-27T00:34:06.034Z,101089.75
2022-12-27T00:36:34.488Z,101087.88
2022-12-27T00:39:02.929Z,101082.25
2022-12-27T00:41:32.809Z,101085.19
2022-12-27T00:44:00.913Z,101073.47
2022-12-27T00:46:29.491Z,101075.09
2022-12-27T00:48:58.800Z,101076.44
2022-12-27T00:51:27.555Z,101070.03
2022-12-27T00:53:56.158Z,101071.88
2022-12-27T00:56:26.203Z,101064.91
2022-12-27T00:58:57.065Z,101064.63
2022-12-27T01:01:27.200Z,101069.47
2022-12-27T01:03:55.698Z,101061.22
2022-12-27T01:06:28.844Z,101059.63
2022-12-27T01:08:57.605Z,101057.75
2022-12-27T01:11:26.813Z,101060.94
2022-12-27T01:13:58.030Z,101044.41
2022-12-27T01:16:27.446Z,101046.25
2022-12-27T01:18:56.717Z,101048.38
2022-12-27T01:21:26.265Z,101048.66
2022-12-27T01:23:55.340Z,101041.75
2022-12-27T01:26:24.252Z,101036.69
2022-12-27T01:28:53.787Z,101035.59
2022-12-27T01:31:25.897Z,101037.19
2022-12-27T01:33:56.767Z,101036.13
2022-12-27T01:36:26.673Z,101040.94
2022-12-27T01:38:55.084Z,101029.75
2022-12-27T01:41:43.203Z,101025.47
2022-12-27T01:44:56.768Z,101024.66
2022-12-27T01:47:35.555Z,101028.41
2022-12-27T01:50:12.830Z,101024.41
2022-12-27T01:52:47.618Z,101030.25
2022-12-27T01:55:23.159Z,101022.25
2022-12-27T01:57:53.646Z,101019.84
2022-12-27T02:00:22.284Z,101008.13
2022-12-27T02:02:52.779Z,101003.59
2022-12-27T02:05:23.473Z,101007.63
2022-12-27T02:08:18.877Z,101002.84
2022-12-27T02:10:47.628Z,100997.75
2022-12-27T02:13:17.279Z,100997.50
2022-12-27T02:15:45.418Z,100991.09
2022-12-27T02:18:14.935Z,100995.09
2022-12-27T02:21:05.651Z,100992.69
2022-12-27T02:24:03.806Z,100998.81
2022-12-27T02:26:49.649Z,100999.88
2022-12-27T02:29:31.968Z,100991.88
2022-12-27T02:32:06.404Z,100992.97
2022-12-27T02:34:43.067Z,100989.25
2022-12-27T02:37:13.602Z,100991.38
2022-12-27T02:39:45.171Z,100975.34
2022-12-27T02:42:32.299Z,100975.91
2022-12-27T02:45:19.705Z,100976.19
2022-12-27T02:48:06.328Z,100976.41
2022-12-27T02:51:03.828Z,100970.28
2022-12-27T02:53:40.578Z,100964.66
2022-12-27T02:56:38.636Z,100970.28
2022-12-27T02:59:25.083Z,100973.69
2022-12-27T03:02:25.189Z,100960.09
2022-12-27T03:05:07.714Z,100951.81
2022-12-27T03:07:40.225Z,100970.72
2022-12-27T03:10:32.969Z,100964.34
2022-12-27T03:13:30.940Z,100969.94
2022-12-27T03:16:15.057Z,100964.59
2022-12-27T03:18:56.926Z,100958.72
2022-12-27T03:21:47.473Z,100952.59
2022-12-27T03:24:35.072Z,100956.00
2022-12-27T03:27:06.121Z,100949.56
2022-12-27T03:29:51.885Z,100953.06
2022-12-27T03:32:38.853Z,100955.78
2022-12-27T03:35:17.705Z,100958.16
2022-12-27T03:38:05.856Z,100952.88
2022-12-27T03:41:07.140Z,100951.78
2022-12-27T03:43:35.707Z,100959.78
2022-12-27T03:46:31.116Z,100954.94
2022-12-27T03:49:10.245Z,100957.56
2022-12-27T03:51:44.532Z,100950.66
2022-12-27T03:54:18.051Z,100952.22
2022-12-27T03:56:46.303Z,100954.38
2022-12-27T03:59:14.600Z,100955.72
2022-12-27T04:01:42.838Z,100950.94
2022-12-27T04:04:11.118Z,100945.59
2022-12-27T04:06:40.571Z,100940.53
2022-12-27T04:09:27.948Z,100947.25
2022-12-27T04:12:13.444Z,100945.63
2022-12-27T04:14:59.081Z,100933.34
2022-12-27T04:17:44.641Z,100931.19
2022-12-27T04:20:30.526Z,100937.34
2022-12-27T04:23:17.794Z,100932.59
2022-12-27T04:26:03.928Z,100919.00
2022-12-27T04:28:49.444Z,100915.00
2022-12-27T04:31:35.043Z,100916.84
2022-12-27T04:34:20.479Z,100910.72
2022-12-27T04:36:48.679Z,100915.22
2022-12-27T04:39:18.279Z,100917.63
2022-12-27T04:42:04.003Z,100922.88
2022-12-27T04:44:58.018Z,100920.47
2022-12-27T04:47:43.818Z,100913.03
2022-12-27T04:50:35.242Z,100911.69
2022-12-27T04:53:20.985Z,100918.03
2022-12-27T04:55:50.469Z,100914.06
2022-12-27T04:58:18.550Z,100924.47
2022-12-27T05:01:07.831Z,100914.84
2022-12-27T05:03:39.662Z,100920.19
2022-12-27T05:06:08.949Z,100915.13
2022-12-27T05:08:55.289Z,100911.59
2022-12-27T05:11:42.611Z,100902.47
2022-12-27T05:14:14.836Z,100908.03
2022-12-27T05:16:44.783Z,100907.81
2022-12-27T05:19:15.550Z,100905.09
2022-12-27T05:22:06.857Z,100913.38
2022-12-27T05:24:52.265Z,100910.19
2022-12-27T05:27:21.745Z,100908.84
2022-12-27T05:29:49.989Z,100916.09
2022-12-27T05:32:18.102Z,100914.47
2022-12-27T05:34:46.235Z,100910.75
2022-12-27T05:37:14.400Z,100912.59
2022-12-27T05:39:42.662Z,100908.84
2022-12-27T05:42:10.802Z,100908.56
2022-12-27T05:44:40.336Z,100899.69
2022-12-27T05:47:08.521Z,100901.22
2022-12-27T05:49:36.655Z,100909.66
2022-12-27T05:52:05.001Z,100908.78
2022-12-27T05:54:33.072Z,100899.94
2022-12-27T05:57:01.185Z,100904.69
2022-12-27T05:59:29.407Z,100904.34
2022-12-27T06:01:59.080Z,100904.63
2022-12-27T06:04:27.351Z,100896.66
2022-12-27T06:06:55.467Z,100904.31
2022-12-27T06:09:23.795Z,100905.00
2022-12-27T06:11:51.962Z,100910.78
2022-12-27T06:14:20.136Z,100913.53
2022-12-27T06:16:48.417Z,100917.25
2022-12-27T06:19:18.052Z,100920.47
2022-12-27T06:21:46.275Z,100913.03
2022-12-27T06:24:14.439Z,100916.38
2022-12-27T06:26:43.553Z,100907.88
2022-12-27T06:29:13.600Z,100911.31
2022-12-27T06:31:41.768Z,100912.19
2022-12-27T06:34:11.835Z,100903.34
2022-12-27T06:36:44.357Z,100907.50
2022-12-27T06:39:12.458Z,100919.63
2022-12-27T06:41:40.796Z,100922.22
2022-12-27T06:44:09.002Z,100919.34
2022-12-27T06:46:37.284Z,100918.19
2022-12-27T06:49:05.663Z,100916.97
2022-12-27T06:51:34.866Z,100915.31
2022-12-27T06:54:04.392Z,100920.38
2022-12-27T06:56:32.489Z,100916.56
2022-12-27T06:59:00.666Z,100924.59
2022-12-27T07:01:30.423Z,100929.72
2022-12-27T07:04:00.896Z,100929.22
2022-12-27T07:06:31.500Z,100932.47
2022-12-27T07:09:01.336Z,100926.09
2022-12-27T07:11:33.216Z,100934.13
2022-12-27T07:14:01.301Z,100925.03
2022-12-27T07:16:31.345Z,100933.50
2022-12-27T07:19:00.730Z,100926.19
2022-12-27T07:21:30.443Z,100930.09
2022-12-27T07:23:58.867Z,100936.09
2022-12-27T07:26:30.096Z,100920.97
2022-12-27T07:29:01.684Z,100927.97
2022-12-27T07:31:32.149Z,100923.06
2022-12-27T07:34:02.322Z,100926.75
2022-12-27T07:36:33.715Z,100928.94
2022-12-27T07:39:02.052Z,100931.69
2022-12-27T07:41:30.140Z,100924.16
2022-12-27T07:43:59.655Z,100923.28
2022-12-27T07:46:27.905Z,100921.91
2022-12-27T07:48:57.568Z,100918.75
2022-12-27T07:51:26.818Z,100930.97
2022-12-27T07:53:55.640Z,100928.78
2022-12-27T07:56:26.830Z,100928.84
2022-12-27T07:58:56.272Z,100926.91
2022-12-27T08:01:28.074Z,100919.44
2022-12-27T08:03:56.960Z,100918.34
2022-12-27T08:06:29.018Z,100926.97
2022-12-27T08:09:00.393Z,100924.88
2022-12-27T08:11:28.593Z,100920.50
2022-12-27T08:13:56.850Z,100924.28
2022-12-27T08:16:27.671Z,100927.69
2022-12-27T08:18:56.268Z,100934.25
2022-12-27T08:21:24.837Z,100923.91
2022-12-27T08:23:53.083Z,100926.00
2022-12-27T08:26:21.381Z,100929.63
2022-12-27T08:28:49.552Z,100924.06
2022-12-27T08:31:17.838Z,100926.97
2022-12-27T08:33:47.569Z,100923.78
2022-12-27T08:36:52.989Z,100921.19
2022-12-27T08:39:04.266Z,100916.72
2022-12-27T08:41:32.466Z,100911.25
2022-12-27T08:44:00.653Z,100914.22
2022-12-27T08:46:28.840Z,100905.47
2022-12-27T08:48:58.448Z,100902.78
2022-12-27T08:51:35.996Z,100909.56
2022-12-27T08:54:08.582Z,100894.91
2022-12-27T08:56:36.752Z,100888.75
2022-12-27T08:59:05.521Z,100891.31
2022-12-27T09:01:34.998Z,100889.94
2022-12-27T09:04:05.437Z,100887.34
2022-12-27T09:06:33.795Z,100888.56
2022-12-27T09:09:02.021Z,100894.97
2022-12-27T09:11:32.421Z,100890.75
2022-12-27T09:14:02.288Z,100888.59
2022-12-27T09:16:31.055Z,100882.19
2022-12-27T09:19:00.544Z,100876.16
2022-12-27T09:21:32.930Z,100878.84
2022-12-27T09:24:01.557Z,100878.25
2022-12-27T09:26:31.942Z,100869.00
2022-12-27T09:29:01.481Z,100866.56
2022-12-27T09:31:30.413Z,100858.22
2022-12-27T09:33:59.615Z,100846.41
2022-12-27T09:36:30.572Z,100841.03
2022-12-27T09:39:00.643Z,100847.41
2022-12-27T09:42:45.913Z,100850.56
2022-12-27T09:44:42.231Z,100838.03
2022-12-27T09:47:14.143Z,100837.91
2022-12-27T09:49:46.772Z,100834.22
2022-12-27T09:52:20.635Z,100832.09
2022-12-27T09:55:04.436Z,100831.56
2022-12-27T09:57:37.502Z,100828.28
2022-12-27T10:00:14.826Z,100824.03
2022-12-27T10:02:45.173Z,100836.72
2022-12-27T10:05:22.083Z,100831.50
2022-12-27T10:08:26.140Z,100829.44
2022-12-27T10:11:03.588Z,100829.44
2022-12-27T10:13:44.283Z,100831.97
2022-12-27T10:16:24.598Z,100817.31
2022-12-27T10:19:11.636Z,100822.69
2022-12-27T10:21:50.880Z,100811.00
2022-12-27T10:24:25.092Z,100807.13
2022-12-27T10:26:56.386Z,100794.47
2022-12-27T10:29:25.900Z,100790.53
2022-12-27T10:31:54.414Z,100784.84
2022-12-27T10:34:24.551Z,100784.84
2022-12-27T10:36:53.688Z,100788.47
2022-12-27T10:39:28.798Z,100780.28
2022-12-27T10:42:03.716Z,100782.66
2022-12-27T10:44:31.848Z,100774.91
2022-12-27T10:47:00.920Z,100770.63
2022-12-27T10:49:30.998Z,100768.75
2022-12-27T10:52:08.094Z,100762.13
2022-12-27T10:54:51.478Z,100750.47
2022-12-27T10:57:27.189Z,100738.38
2022-12-27T11:00:17.713Z,100741.09
2022-12-27T11:02:53.749Z,100740.91
2022-12-27T11:05:24.297Z,100735.06
2022-12-27T11:07:52.779Z,100732.88
2022-12-27T11:10:24.583Z,100725.63
2022-12-27T11:12:57.289Z,100725.34
2022-12-27T11:15:26.261Z,100713.78
2022-12-27T11:17:56.688Z,100716.97
2022-12-27T11:20:28.237Z,100714.59
2022-12-27T11:22:59.433Z,100711.91
2022-12-27T11:25:30.385Z,100707.94
2022-12-27T11:28:03.674Z,100701.63
2022-12-27T11:30:34.928Z,100709.84
2022-12-27T11:33:06.514Z,100703.03
2022-12-27T11:35:46.890Z,100702.56
2022-12-27T11:38:24.675Z,100703.19
2022-12-27T11:41:03.260Z,100695.88
2022-12-27T11:43:35.571Z,100698.31
2022-12-27T11:46:07.340Z,100682.44
2022-12-27T11:48:41.032Z,100690.16
2022-12-27T11:51:39.135Z,100695.06
2022-12-27T11:54:36.965Z,100691.50
2022-12-27T11:57:21.493Z,100694.31
2022-12-27T12:00:00.952Z,100699.88
2022-12-27T12:02:37.437Z,100700.78
2022-12-27T12:05:52.876Z,100685.41
2022-12-27T12:08:48.157Z,100687.25
2022-12-27T12:11:28.333Z,100684.41
2022-12-27T12:14:16.583Z,100683.69
2022-12-27T12:17:24.637Z,100675.06
2022-12-27T12:20:18.525Z,100687.13
2022-12-27T12:23:03.268Z,100688.59
2022-12-27T12:26:03.864Z,100682.38
2022-12-27T12:29:03.772Z,100684.91
2022-12-27T12:32:14.018Z,100677.63
2022-12-27T12:35:07.973Z,100682.16
2022-12-27T12:38:04.477Z,100684.03
2022-12-27T12:41:14.324Z,100687.56
2022-12-27T12:43:59.614Z,100684.78
2022-12-27T12:46:34.579Z,100687.75
2022-12-27T12:49:15.465Z,100684.84
2022-12-27T12:52:20.200Z,100698.34
2022-12-27T12:55:04.526Z,100684.84
2022-12-27T12:57:50.440Z,100688.44
2022-12-27T13:00:30.868Z,100692.00
2022-12-27T13:03:37.346Z,100701.03
2022-12-27T13:06:17.278Z,100703.25
2022-12-27T13:08:54.806Z,100699.66
2022-12-27T13:11:38.211Z,100701.88
2022-12-27T13:14:40.082Z,100706.41
2022-12-27T13:17:16.968Z,100704.34
2022-12-27T13:19:58.028Z,100705.00
2022-12-27T13:22:38.953Z,100707.06
2022-12-27T13:25:21.491Z,100720.69
2022-12-27T13:27:58.361Z,100709.88
2022-12-27T13:30:35.720Z,100708.63
2022-12-27T13:33:20.890Z,100722.78
2022-12-27T13:36:05.126Z,100716.00
2022-12-27T13:38:45.052Z,100713.91
2022-12-27T13:41:30.362Z,100719.31
2022-12-27T13:44:20.833Z,100720.13
2022-12-27T13:47:27.309Z,100721.97
2022-12-27T13:50:15.780Z,100724.72
2022-12-27T13:53:00.414Z,100733.16
2022-12-27T13:55:54.499Z,100735.63
2022-12-27T13:58:45.607Z,100741.38
2022-12-27T14:01:32.764Z,100734.25
2022-12-27T14:04:24.881Z,100738.06
2022-12-27T14:07:19.578Z,100746.50
2022-12-27T14:10:12.811Z,100750.34
2022-12-27T14:13:07.581Z,100751.44
2022-12-27T14:16:20.426Z,100747.22
2022-12-27T14:19:03.971Z,100750.06
2022-12-27T14:22:00.153Z,100747.38
2022-12-27T14:25:12.398Z,100763.06
2022-12-27T14:28:25.936Z,100773.06
2022-12-27T14:31:23.033Z,100761.97
2022-12-27T14:34:21.994Z,100753.91
2022-12-27T14:37:18.005Z,100754.97
2022-12-27T14:40:14.145Z,100753.72
2022-12-27T14:43:26.175Z,100754.84
2022-12-27T14:46:26.309Z,100776.03
2022-12-27T14:49:38.346Z,100769.84
2022-12-27T14:52:50.968Z,100772.38
2022-12-27T14:55:51.555Z,100774.25
2022-12-27T14:58:41.596Z,100772.66
2022-12-27T15:01:25.672Z,100772.03
2022-12-27T15:04:24.614Z,100790.72
2022-12-27T15:07:15.367Z,100797.31
2022-12-27T15:09:49.741Z,100799.22
2022-12-27T15:12:26.520Z,100814.09
2022-12-27T15:15:08.621Z,100826.91
2022-12-27T15:17:52.641Z,100837.81
2022-12-27T15:20:46.123Z,100837.91
2022-12-27T15:23:25.951Z,100837.53
2022-12-27T15:26:05.950Z,100840.38
2022-12-27T15:28:49.800Z,100861.03
2022-12-27T15:31:30.694Z,100855.47
2022-12-27T15:34:17.083Z,100865.88
2022-12-27T15:36:47.391Z,100868.50
2022-12-27T15:39:47.935Z,100870.06
2022-12-27T15:42:38.813Z,100875.91
2022-12-27T15:45:23.680Z,100882.88
2022-12-27T15:48:26.375Z,100890.25
2022-12-27T15:51:03.347Z,100882.09
2022-12-27T15:53:49.504Z,100874.16
2022-12-27T15:56:36.166Z,100871.63
2022-12-27T15:59:41.486Z,100876.41
2022-12-27T16:02:35.819Z,100886.16
2022-12-27T16:05:14.031Z,100889.09
2022-12-27T16:07:50.254Z,100892.66
2022-12-27T16:10:48.135Z,100893.34
2022-12-27T16:13:27.621Z,100903.97
2022-12-27T16:15:56.689Z,100898.47
2022-12-27T16:18:58.442Z,100894.78
2022-12-27T16:21:28.613Z,100907.34
2022-12-27T16:24:04.985Z,100910.03
2022-12-27T16:26:35.607Z,100917.31
2022-12-27T16:29:07.282Z,100916.44
2022-12-27T16:31:41.961Z,100906.78
2022-12-27T16:34:21.942Z,100916.44
2022-12-27T16:36:53.024Z,100917.34
2022-12-27T16:39:52.045Z,100925.16
2022-12-27T16:42:25.035Z,100934.13
2022-12-27T16:44:57.608Z,100937.28
2022-12-27T16:48:07.528Z,100942.75
2022-12-27T16:50:55.377Z,100949.13
2022-12-27T16:54:04.815Z,100942.25
2022-12-27T16:56:37.099Z,100948.19
2022-12-27T16:59:27.144Z,100956.84
2022-12-27T17:02:00.046Z,100971.44
2022-12-27T17:04:58.522Z,100962.41
2022-12-27T17:07:45.515Z,100958.09
2022-12-27T17:10:43.774Z,100965.25
2022-12-27T17:13:17.610Z,100976.56
2022-12-27T17:15:54.678Z,100980.72
2022-12-27T17:18:29.618Z,100977.75
2022-12-27T17:21:05.149Z,100973.06
2022-12-27T17:23:39.909Z,100968.28
2022-12-27T17:26:22.158Z,100964.84
2022-12-27T17:29:00.945Z,100963.81
2022-12-27T17:31:37.233Z,100969.69
2022-12-27T17:34:12.520Z,100967.81
2022-12-27T17:36:56.549Z,100967.19
2022-12-27T17:39:38.136Z,100972.69
2022-12-27T17:42:31.195Z,100966.53
2022-12-27T17:45:14.158Z,100970.91
2022-12-27T17:48:04.934Z,100980.34
2022-12-27T17:50:33.322Z,101000.28
2022-12-27T17:53:33.868Z,100999.91
2022-12-27T17:56:36.083Z,101012.16
2022-12-27T17:59:08.400Z,101010.84
2022-12-27T18:01:43.999Z,101014.44
2022-12-27T18:04:21.764Z,101012.59
2022-12-27T18:06:50.493Z,101009.81
2022-12-27T18:09:32.921Z,101015.13
2022-12-27T18:12:01.712Z,101015.84
2022-12-27T18:14:31.803Z,101011.50
2022-12-27T18:17:01.655Z,101009.09
2022-12-27T18:19:32.085Z,100993.75
2022-12-27T18:22:02.021Z,100992.66
2022-12-27T18:24:32.636Z,100997.22
2022-12-27T18:27:05.912Z,101005.34
2022-12-27T18:29:34.476Z,101002.31
2022-12-27T18:32:08.900Z,101002.81
2022-12-27T18:34:43.585Z,100999.91
2022-12-27T18:37:18.510Z,101015.13
2022-12-27T18:39:51.406Z,101013.09
2022-12-27T18:42:26.149Z,101013.94
2022-12-27T18:44:58.833Z,101013.56
2022-12-27T18:47:29.267Z,101020.34
2022-12-27T18:50:00.738Z,101017.94
2022-12-27T18:52:33.100Z,101024.59
2022-12-27T18:55:14.884Z,101025.09
2022-12-27T18:57:43.009Z,101037.84
2022-12-27T19:00:22.819Z,101024.81
2022-12-27T19:02:54.042Z,101025.09
2022-12-27T19:05:30.734Z,101017.00
2022-12-27T19:08:10.421Z,101021.47
2022-12-27T19:10:41.512Z,101021.78
2022-12-27T19:13:23.015Z,101037.69
2022-12-27T19:15:52.419Z,101031.84
2022-12-27T19:18:26.366Z,101037.47
2022-12-27T19:20:58.383Z,101023.88
2022-12-27T19:23:30.546Z,101030.81
2022-12-27T19:26:09.420Z,101020.97
2022-12-27T19:28:37.545Z,101019.88
2022-12-27T19:31:18.368Z,101032.25
2022-12-27T19:33:51.821Z,101017.69
2022-12-27T19:36:26.112Z,101024.94
2022-12-27T19:38:54.938Z,101030.03
2022-12-27T19:41:23.054Z,101024.44
2022-12-27T19:43:51.792Z,101019.13
2022-12-27T19:46:20.332Z,101017.69
2022-12-27T19:49:23.267Z,101023.50
2022-12-27T19:51:38.899Z,101029.44
2022-12-27T19:54:13.421Z,101019.09
2022-12-27T19:56:41.619Z,101029.69
2022-12-27T19:59:16.884Z,101028.22
2022-12-27T20:01:45.728Z,101033.19
2022-12-27T20:04:16.408Z,101035.19
2022-12-27T20:06:46.227Z,101037.16
2022-12-27T20:09:18.477Z,101048.19
2022-12-27T20:11:47.039Z,101047.69
2022-12-27T20:14:17.620Z,101059.25
2022-12-27T20:16:46.126Z,101074.25
2022-12-27T20:19:18.233Z,101074.03
2022-12-27T20:21:46.467Z,101074.53
2022-12-27T20:24:15.523Z,101083.06
2022-12-27T20:26:44.641Z,101084.44
2022-12-27T20:29:15.132Z,101087.63
2022-12-27T20:31:46.325Z,101097.78
2022-12-27T20:34:15.939Z,101085.31
2022-12-27T20:36:44.749Z,101097.38
2022-12-27T20:39:12.969Z,101111.03
2022-12-27T20:41:41.073Z,101105.72
2022-12-27T20:44:09.135Z,101118.50
2022-12-27T20:46:37.336Z,101119.25
2022-12-27T20:49:07.090Z,101116.31
2022-12-27T20:51:37.281Z,101123.91
2022-12-27T20:54:05.586Z,101127.16
2022-12-27T20:56:35.277Z,101124.31
2022-12-27T20:59:03.690Z,101126.38
2022-12-27T21:01:32.088Z,101116.34
2022-12-27T21:04:00.318Z,101128.59
2022-12-27T21:06:30.171Z,101133.13
2022-12-27T21:09:00.684Z,101138.75
2022-12-27T21:11:31.733Z,101142.00
2022-12-27T21:14:02.142Z,101143.38
2022-12-27T21:16:32.046Z,101139.91
2022-12-27T21:19:03.443Z,101154.88
2022-12-27T21:21:33.108Z,101156.00
2022-12-27T21:24:02.807Z,101154.91
2022-12-27T21:26:32.752Z,101149.84
2022-12-27T21:29:02.889Z,101146.59
2022-12-27T21:31:32.473Z,101143.63
2022-12-27T21:34:01.031Z,101148.41
2022-12-27T21:36:34.150Z,101146.78
2022-12-27T21:39:04.860Z,101135.50
2022-12-27T21:41:34.632Z,101149.88
2022-12-27T21:44:03.458Z,101149.81
2022-12-27T21:46:33.537Z,101157.25
2022-12-27T21:49:03.961Z,101167.94
2022-12-27T21:51:33.307Z,101160.09
2022-12-27T21:54:03.679Z,101150.97
2022-12-27T21:56:32.163Z,101155.25
2022-12-27T21:59:03.101Z,101145.84
2022-12-27T22:01:50.671Z,101162.44
2022-12-27T22:04:21.304Z,101172.06
2022-12-27T22:06:49.791Z,101175.53
2022-12-27T22:09:20.560Z,101188.94
2022-12-27T22:11:49.143Z,101199.16
2022-12-27T22:14:23.309Z,101213.84
2022-12-27T22:16:53.477Z,101212.28
2022-12-27T22:19:21.736Z,101238.84
2022-12-27T22:21:49.849Z,101254.66
2022-12-27T22:24:19.870Z,101258.19
2022-12-27T22:26:50.420Z,101275.66
2022-12-27T22:29:19.017Z,101280.03
2022-12-27T22:31:48.212Z,101288.13
2022-12-27T22:34:16.301Z,101288.94
2022-12-27T22:36:45.109Z,101295.09
2022-12-27T22:39:13.191Z,101308.22
2022-12-27T22:41:41.333Z,101295.41
2022-12-27T22:44:13.533Z,101309.34
2022-12-27T22:47:15.635Z,101306.44
2022-12-27T22:49:30.364Z,101313.94
2022-12-27T22:51:58.421Z,101323.31
2022-12-27T22:55:07.027Z,101322.50
2022-12-27T22:57:14.948Z,101325.44
2022-12-27T22:59:44.578Z,101324.94
2022-12-27T23:02:12.884Z,101313.47
2022-12-27T23:04:41.107Z,101325.78
2022-12-27T23:07:09.630Z,101331.16
2022-12-27T23:09:42.770Z,101334.94
2022-12-27T23:12:11.670Z,101331.44
2022-12-27T23:14:40.079Z,101328.81
2022-12-27T23:17:09.658Z,101332.28
2022-12-27T23:19:37.862Z,101332.28
2022-12-27T23:22:06.390Z,101313.06
2022-12-27T23:24:34.727Z,101320.81
2022-12-27T23:27:03.420Z,101332.31
2022-12-27T23:29:31.661Z,101327.53
2022-12-27T23:32:00.050Z,101343.56
2022-12-27T23:34:29.669Z,101352.19
2022-12-27T23:36:58.318Z,101357.25
2022-12-27T23:39:26.910Z,101363.94
2022-12-27T23:41:55.354Z,101349.53
2022-12-27T23:44:34.253Z,101369.31
2022-12-27T23:47:04.361Z,101364.47
2022-12-27T23:49:34.147Z,101369.81
2022-12-27T23:52:02.313Z,101370.88
2022-12-27T23:54:32.413Z,101383.72
2022-12-27T23:57:19.402Z,101381.06
2022-12-27T23:59:49.579Z,101393.59
